sensor_id;sensor_type;location;lat;lon;timestamp;P1;durP1;ratioP1;P2;durP2;ratioP2
15120;SDS011;7661;48.904;9.414;2022-07-01T00:00:50;4.10;;;1.30;;
15120;SDS011;7661;48.904;9.414;2022-07-01T00:03:17;5.70;;;1.50;;
15120;SDS011;7661;48.904;9.414;2022-07-01T00:05:43;10.53;;;1.33;;
15120;SDS011;7661;48.904;9.414;2022-07-01T00:08:10;2.17;;;1.00;;
15120;SDS011;7661;48.904;9.414;2022-07-01T00:10:37;5.50;;;1.30;;
15120;SDS011;7661;48.904;9.414;2022-07-01T00:13:04;3.80;;;1.20;;
15120;SDS011;7661;48.904;9.414;2022-07-01T00:15:32;4.50;;;1.33;;
15120;SDS011;7661;48.904;9.414;2022-07-01T00:18:00;2.70;;;1.20;;
15120;SDS011;7661;48.904;9.414;2022-07-01T00:20:28;7.20;;;1.43;;
15120;SDS011;7661;48.904;9.414;2022-07-01T00:22:55;3.63;;;1.23;;
15120;SDS011;7661;48.904;9.414;2022-07-01T00:25:22;4.37;;;1.30;;
15120;SDS011;7661;48.904;9.414;2022-07-01T00:27:48;6.33;;;1.33;;
15120;SDS011;7661;48.904;9.414;2022-07-01T00:30:15;3.63;;;1.10;;
15120;SDS011;7661;48.904;9.414;2022-07-01T00:32:42;7.37;;;1.40;;
15120;SDS011;7661;48.904;9.414;2022-07-01T00:35:12;5.10;;;1.40;;
15120;SDS011;7661;48.904;9.414;2022-07-01T00:37:39;2.93;;;1.13;;
15120;SDS011;7661;48.904;9.414;2022-07-01T00:40:07;5.30;;;1.40;;
15120;SDS011;7661;48.904;9.414;2022-07-01T00:42:37;5.90;;;1.27;;
15120;SDS011;7661;48.904;9.414;2022-07-01T00:45:06;4.70;;;1.20;;
15120;SDS011;7661;48.904;9.414;2022-07-01T00:47:34;4.53;;;1.57;;
15120;SDS011;7661;48.904;9.414;2022-07-01T00:50:01;6.63;;;1.17;;
15120;SDS011;7661;48.904;9.414;2022-07-01T00:52:33;3.60;;;1.37;;
15120;SDS011;7661;48.904;9.414;2022-07-01T00:55:01;5.23;;;1.73;;
15120;SDS011;7661;48.904;9.414;2022-07-01T00:57:29;5.43;;;1.07;;
15120;SDS011;7661;48.904;9.414;2022-07-01T00:59:57;4.47;;;1.27;;
15120;SDS011;7661;48.904;9.414;2022-07-01T01:02:24;3.63;;;1.40;;
15120;SDS011;7661;48.904;9.414;2022-07-01T01:04:51;5.80;;;1.10;;
15120;SDS011;7661;48.904;9.414;2022-07-01T01:07:17;4.77;;;1.27;;
15120;SDS011;7661;48.904;9.414;2022-07-01T01:09:46;3.47;;;1.10;;
15120;SDS011;7661;48.904;9.414;2022-07-01T01:12:13;9.00;;;1.57;;
15120;SDS011;7661;48.904;9.414;2022-07-01T01:14:43;3.17;;;1.20;;
15120;SDS011;7661;48.904;9.414;2022-07-01T01:17:11;2.93;;;1.10;;
15120;SDS011;7661;48.904;9.414;2022-07-01T01:19:38;3.17;;;1.33;;
15120;SDS011;7661;48.904;9.414;2022-07-01T01:22:06;4.30;;;1.40;;
15120;SDS011;7661;48.904;9.414;2022-07-01T01:24:33;3.87;;;1.10;;
15120;SDS011;7661;48.904;9.414;2022-07-01T01:27:01;5.70;;;1.10;;
15120;SDS011;7661;48.904;9.414;2022-07-01T01:29:28;5.20;;;1.50;;
15120;SDS011;7661;48.904;9.414;2022-07-01T01:31:55;2.47;;;1.10;;
15120;SDS011;7661;48.904;9.414;2022-07-01T01:34:22;4.13;;;1.67;;
15120;SDS011;7661;48.904;9.414;2022-07-01T01:36:49;5.33;;;1.50;;
15120;SDS011;7661;48.904;9.414;2022-07-01T01:39:18;2.67;;;1.00;;
15120;SDS011;7661;48.904;9.414;2022-07-01T01:41:45;4.77;;;1.30;;
15120;SDS011;7661;48.904;9.414;2022-07-01T01:44:12;3.63;;;1.00;;
15120;SDS011;7661;48.904;9.414;2022-07-01T01:46:39;3.53;;;1.20;;
15120;SDS011;7661;48.904;9.414;2022-07-01T01:49:06;3.93;;;1.37;;
15120;SDS011;7661;48.904;9.414;2022-07-01T01:51:34;2.90;;;1.10;;
15120;SDS011;7661;48.904;9.414;2022-07-01T01:54:00;3.87;;;1.43;;
15120;SDS011;7661;48.904;9.414;2022-07-01T01:56:29;3.40;;;1.20;;
15120;SDS011;7661;48.904;9.414;2022-07-01T01:58:56;2.70;;;1.10;;
15120;SDS011;7661;48.904;9.414;2022-07-01T02:01:23;3.30;;;0.87;;
15120;SDS011;7661;48.904;9.414;2022-07-01T02:03:51;2.60;;;1.10;;
15120;SDS011;7661;48.904;9.414;2022-07-01T02:06:19;3.10;;;1.37;;
15120;SDS011;7661;48.904;9.414;2022-07-01T02:08:47;2.50;;;1.00;;
15120;SDS011;7661;48.904;9.414;2022-07-01T02:11:14;2.23;;;1.13;;
15120;SDS011;7661;48.904;9.414;2022-07-01T02:13:42;3.27;;;1.30;;
15120;SDS011;7661;48.904;9.414;2022-07-01T02:16:10;2.33;;;1.03;;
15120;SDS011;7661;48.904;9.414;2022-07-01T02:18:37;2.63;;;1.40;;
15120;SDS011;7661;48.904;9.414;2022-07-01T02:21:05;2.50;;;1.10;;
15120;SDS011;7661;48.904;9.414;2022-07-01T02:23:31;2.60;;;1.00;;
15120;SDS011;7661;48.904;9.414;2022-07-01T02:25:59;2.20;;;1.00;;
15120;SDS011;7661;48.904;9.414;2022-07-01T02:28:25;1.90;;;1.00;;
15120;SDS011;7661;48.904;9.414;2022-07-01T02:30:54;3.33;;;1.17;;
15120;SDS011;7661;48.904;9.414;2022-07-01T02:33:20;4.47;;;1.33;;
15120;SDS011;7661;48.904;9.414;2022-07-01T02:35:47;3.60;;;1.40;;
15120;SDS011;7661;48.904;9.414;2022-07-01T02:38:15;2.57;;;1.20;;
15120;SDS011;7661;48.904;9.414;2022-07-01T02:40:42;2.13;;;0.90;;
15120;SDS011;7661;48.904;9.414;2022-07-01T02:43:09;5.00;;;1.10;;
15120;SDS011;7661;48.904;9.414;2022-07-01T02:45:36;6.00;;;1.30;;
15120;SDS011;7661;48.904;9.414;2022-07-01T02:48:04;2.00;;;0.93;;
15120;SDS011;7661;48.904;9.414;2022-07-01T02:50:32;4.87;;;1.33;;
15120;SDS011;7661;48.904;9.414;2022-07-01T02:52:58;2.03;;;1.13;;
15120;SDS011;7661;48.904;9.414;2022-07-01T02:55:25;4.37;;;1.27;;
15120;SDS011;7661;48.904;9.414;2022-07-01T02:57:54;5.53;;;1.30;;
15120;SDS011;7661;48.904;9.414;2022-07-01T03:00:21;2.50;;;1.30;;
15120;SDS011;7661;48.904;9.414;2022-07-01T03:02:48;9.33;;;1.33;;
15120;SDS011;7661;48.904;9.414;2022-07-01T03:05:17;8.00;;;1.50;;
15120;SDS011;7661;48.904;9.414;2022-07-01T03:07:44;4.50;;;1.33;;
15120;SDS011;7661;48.904;9.414;2022-07-01T03:10:10;2.23;;;1.20;;
15120;SDS011;7661;48.904;9.414;2022-07-01T03:12:37;3.10;;;1.10;;
15120;SDS011;7661;48.904;9.414;2022-07-01T03:15:06;4.67;;;1.30;;
15120;SDS011;7661;48.904;9.414;2022-07-01T03:17:35;2.57;;;1.27;;
15120;SDS011;7661;48.904;9.414;2022-07-01T03:20:04;4.80;;;1.27;;
15120;SDS011;7661;48.904;9.414;2022-07-01T03:22:33;7.30;;;1.70;;
15120;SDS011;7661;48.904;9.414;2022-07-01T03:25:01;2.70;;;1.40;;
15120;SDS011;7661;48.904;9.414;2022-07-01T03:27:30;3.40;;;1.50;;
15120;SDS011;7661;48.904;9.414;2022-07-01T03:29:57;6.10;;;1.30;;
15120;SDS011;7661;48.904;9.414;2022-07-01T03:32:24;2.77;;;1.60;;
15120;SDS011;7661;48.904;9.414;2022-07-01T03:34:52;3.77;;;1.67;;
15120;SDS011;7661;48.904;9.414;2022-07-01T03:37:19;9.60;;;1.83;;
15120;SDS011;7661;48.904;9.414;2022-07-01T03:39:49;2.90;;;1.60;;
15120;SDS011;7661;48.904;9.414;2022-07-01T03:42:16;3.90;;;1.50;;
15120;SDS011;7661;48.904;9.414;2022-07-01T03:44:44;2.43;;;1.33;;
15120;SDS011;7661;48.904;9.414;2022-07-01T03:47:11;5.23;;;1.77;;
15120;SDS011;7661;48.904;9.414;2022-07-01T03:49:38;3.07;;;1.60;;
15120;SDS011;7661;48.904;9.414;2022-07-01T03:52:05;2.10;;;1.40;;
15120;SDS011;7661;48.904;9.414;2022-07-01T03:54:32;2.80;;;1.50;;
15120;SDS011;7661;48.904;9.414;2022-07-01T03:57:04;3.73;;;1.70;;
15120;SDS011;7661;48.904;9.414;2022-07-01T03:59:33;2.13;;;1.30;;
15120;SDS011;7661;48.904;9.414;2022-07-01T04:02:02;3.90;;;1.47;;
15120;SDS011;7661;48.904;9.414;2022-07-01T04:04:29;4.47;;;1.37;;
15120;SDS011;7661;48.904;9.414;2022-07-01T04:06:57;4.37;;;1.70;;
15120;SDS011;7661;48.904;9.414;2022-07-01T04:09:25;3.10;;;1.37;;
15120;SDS011;7661;48.904;9.414;2022-07-01T04:11:54;3.40;;;1.60;;
15120;SDS011;7661;48.904;9.414;2022-07-01T04:14:23;4.13;;;1.80;;
15120;SDS011;7661;48.904;9.414;2022-07-01T04:16:50;3.13;;;1.23;;
15120;SDS011;7661;48.904;9.414;2022-07-01T04:19:18;3.53;;;1.80;;
15120;SDS011;7661;48.904;9.414;2022-07-01T04:21:45;3.23;;;1.60;;
15120;SDS011;7661;48.904;9.414;2022-07-01T04:24:29;3.20;;;1.80;;
15120;SDS011;7661;48.904;9.414;2022-07-01T04:26:57;3.60;;;2.27;;
15120;SDS011;7661;48.904;9.414;2022-07-01T04:29:26;5.70;;;2.07;;
15120;SDS011;7661;48.904;9.414;2022-07-01T04:31:54;10.00;;;2.50;;
15120;SDS011;7661;48.904;9.414;2022-07-01T04:34:21;4.00;;;2.37;;
15120;SDS011;7661;48.904;9.414;2022-07-01T04:36:48;4.53;;;2.07;;
15120;SDS011;7661;48.904;9.414;2022-07-01T04:39:15;5.50;;;2.30;;
15120;SDS011;7661;48.904;9.414;2022-07-01T04:41:41;5.63;;;2.07;;
15120;SDS011;7661;48.904;9.414;2022-07-01T04:44:28;5.33;;;2.30;;
15120;SDS011;7661;48.904;9.414;2022-07-01T04:46:56;5.93;;;2.63;;
15120;SDS011;7661;48.904;9.414;2022-07-01T04:49:23;6.87;;;2.77;;
15120;SDS011;7661;48.904;9.414;2022-07-01T04:51:50;5.00;;;2.57;;
15120;SDS011;7661;48.904;9.414;2022-07-01T04:54:17;10.70;;;3.13;;
15120;SDS011;7661;48.904;9.414;2022-07-01T04:56:44;6.13;;;3.43;;
15120;SDS011;7661;48.904;9.414;2022-07-01T04:59:12;10.43;;;2.40;;
15120;SDS011;7661;48.904;9.414;2022-07-01T05:01:41;6.17;;;2.73;;
15120;SDS011;7661;48.904;9.414;2022-07-01T05:04:08;10.40;;;3.20;;
15120;SDS011;7661;48.904;9.414;2022-07-01T05:06:35;6.37;;;3.00;;
15120;SDS011;7661;48.904;9.414;2022-07-01T05:09:02;10.57;;;2.73;;
15120;SDS011;7661;48.904;9.414;2022-07-01T05:11:29;5.40;;;2.80;;
15120;SDS011;7661;48.904;9.414;2022-07-01T05:13:56;8.37;;;2.37;;
15120;SDS011;7661;48.904;9.414;2022-07-01T05:16:23;3.90;;;2.53;;
15120;SDS011;7661;48.904;9.414;2022-07-01T05:18:51;3.87;;;2.00;;
15120;SDS011;7661;48.904;9.414;2022-07-01T05:21:36;4.00;;;2.70;;
15120;SDS011;7661;48.904;9.414;2022-07-01T05:24:20;5.50;;;3.57;;
15120;SDS011;7661;48.904;9.414;2022-07-01T05:26:47;3.83;;;2.90;;
15120;SDS011;7661;48.904;9.414;2022-07-01T05:29:14;5.37;;;2.83;;
15120;SDS011;7661;48.904;9.414;2022-07-01T05:31:41;4.00;;;2.93;;
15120;SDS011;7661;48.904;9.414;2022-07-01T05:34:10;5.97;;;3.37;;
15120;SDS011;7661;48.904;9.414;2022-07-01T05:36:37;4.30;;;2.40;;
15120;SDS011;7661;48.904;9.414;2022-07-01T05:39:04;7.47;;;3.03;;
15120;SDS011;7661;48.904;9.414;2022-07-01T05:41:30;5.10;;;3.60;;
15120;SDS011;7661;48.904;9.414;2022-07-01T05:43:58;5.20;;;2.97;;
15120;SDS011;7661;48.904;9.414;2022-07-01T05:46:25;7.47;;;3.60;;
15120;SDS011;7661;48.904;9.414;2022-07-01T05:48:51;9.70;;;4.93;;
15120;SDS011;7661;48.904;9.414;2022-07-01T05:51:20;7.80;;;4.53;;
15120;SDS011;7661;48.904;9.414;2022-07-01T05:53:46;8.10;;;3.53;;
15120;SDS011;7661;48.904;9.414;2022-07-01T05:56:13;9.73;;;5.23;;
15120;SDS011;7661;48.904;9.414;2022-07-01T05:58:40;6.60;;;4.37;;
15120;SDS011;7661;48.904;9.414;2022-07-01T06:01:07;9.87;;;5.23;;
15120;SDS011;7661;48.904;9.414;2022-07-01T06:03:34;7.90;;;4.63;;
15120;SDS011;7661;48.904;9.414;2022-07-01T06:06:02;7.50;;;5.10;;
15120;SDS011;7661;48.904;9.414;2022-07-01T06:08:30;12.00;;;4.30;;
15120;SDS011;7661;48.904;9.414;2022-07-01T06:10:58;6.17;;;4.20;;
15120;SDS011;7661;48.904;9.414;2022-07-01T06:13:25;7.80;;;4.27;;
15120;SDS011;7661;48.904;9.414;2022-07-01T06:15:54;6.33;;;4.37;;
15120;SDS011;7661;48.904;9.414;2022-07-01T06:18:22;10.67;;;4.50;;
15120;SDS011;7661;48.904;9.414;2022-07-01T06:20:49;7.17;;;4.20;;
15120;SDS011;7661;48.904;9.414;2022-07-01T06:23:16;10.43;;;4.10;;
15120;SDS011;7661;48.904;9.414;2022-07-01T06:25:44;5.60;;;3.80;;
15120;SDS011;7661;48.904;9.414;2022-07-01T06:28:11;6.70;;;4.40;;
15120;SDS011;7661;48.904;9.414;2022-07-01T06:30:38;7.30;;;3.77;;
15120;SDS011;7661;48.904;9.414;2022-07-01T06:33:08;5.97;;;3.50;;
15120;SDS011;7661;48.904;9.414;2022-07-01T06:35:36;6.10;;;4.27;;
15120;SDS011;7661;48.904;9.414;2022-07-01T06:38:03;5.20;;;4.37;;
15120;SDS011;7661;48.904;9.414;2022-07-01T06:40:30;9.33;;;3.70;;
15120;SDS011;7661;48.904;9.414;2022-07-01T06:42:58;5.73;;;3.53;;
15120;SDS011;7661;48.904;9.414;2022-07-01T06:45:25;5.03;;;3.83;;
15120;SDS011;7661;48.904;9.414;2022-07-01T06:47:53;5.30;;;3.70;;
15120;SDS011;7661;48.904;9.414;2022-07-01T06:50:19;5.87;;;4.20;;
15120;SDS011;7661;48.904;9.414;2022-07-01T06:52:46;5.50;;;3.90;;
15120;SDS011;7661;48.904;9.414;2022-07-01T06:55:13;9.57;;;4.83;;
15120;SDS011;7661;48.904;9.414;2022-07-01T06:57:40;6.17;;;4.30;;
15120;SDS011;7661;48.904;9.414;2022-07-01T07:00:10;5.27;;;3.93;;
15120;SDS011;7661;48.904;9.414;2022-07-01T07:02:37;4.47;;;3.40;;
15120;SDS011;7661;48.904;9.414;2022-07-01T07:05:05;4.87;;;3.70;;
15120;SDS011;7661;48.904;9.414;2022-07-01T07:07:32;5.43;;;3.23;;
15120;SDS011;7661;48.904;9.414;2022-07-01T07:09:59;6.23;;;3.70;;
15120;SDS011;7661;48.904;9.414;2022-07-01T07:12:26;6.07;;;3.47;;
15120;SDS011;7661;48.904;9.414;2022-07-01T07:14:53;6.07;;;3.30;;
15120;SDS011;7661;48.904;9.414;2022-07-01T07:17:21;5.90;;;3.30;;
15120;SDS011;7661;48.904;9.414;2022-07-01T07:19:48;5.30;;;3.30;;
15120;SDS011;7661;48.904;9.414;2022-07-01T07:22:15;5.57;;;2.83;;
15120;SDS011;7661;48.904;9.414;2022-07-01T07:24:42;6.07;;;3.13;;
15120;SDS011;7661;48.904;9.414;2022-07-01T07:27:08;6.63;;;2.77;;
15120;SDS011;7661;48.904;9.414;2022-07-01T07:29:35;10.27;;;3.00;;
15120;SDS011;7661;48.904;9.414;2022-07-01T07:32:02;4.27;;;2.70;;
15120;SDS011;7661;48.904;9.414;2022-07-01T07:34:31;6.47;;;2.70;;
15120;SDS011;7661;48.904;9.414;2022-07-01T07:36:59;3.63;;;2.60;;
15120;SDS011;7661;48.904;9.414;2022-07-01T07:39:26;4.13;;;2.67;;
15120;SDS011;7661;48.904;9.414;2022-07-01T07:41:53;4.33;;;2.50;;
15120;SDS011;7661;48.904;9.414;2022-07-01T07:44:20;4.10;;;2.20;;
15120;SDS011;7661;48.904;9.414;2022-07-01T07:46:47;10.00;;;2.70;;
15120;SDS011;7661;48.904;9.414;2022-07-01T07:49:13;5.10;;;2.70;;
15120;SDS011;7661;48.904;9.414;2022-07-01T07:51:42;3.60;;;2.00;;
15120;SDS011;7661;48.904;9.414;2022-07-01T07:54:08;3.50;;;1.73;;
15120;SDS011;7661;48.904;9.414;2022-07-01T07:56:35;3.00;;;1.43;;
15120;SDS011;7661;48.904;9.414;2022-07-01T07:59:02;3.63;;;1.50;;
15120;SDS011;7661;48.904;9.414;2022-07-01T08:01:29;2.97;;;1.53;;
15120;SDS011;7661;48.904;9.414;2022-07-01T08:03:56;5.77;;;1.73;;
15120;SDS011;7661;48.904;9.414;2022-07-01T08:06:23;2.60;;;1.50;;
15120;SDS011;7661;48.904;9.414;2022-07-01T08:08:51;2.40;;;1.63;;
15120;SDS011;7661;48.904;9.414;2022-07-01T08:11:18;3.30;;;1.30;;
15120;SDS011;7661;48.904;9.414;2022-07-01T08:13:45;4.00;;;1.70;;
15120;SDS011;7661;48.904;9.414;2022-07-01T08:16:12;3.30;;;1.33;;
15120;SDS011;7661;48.904;9.414;2022-07-01T08:18:39;3.50;;;1.50;;
15120;SDS011;7661;48.904;9.414;2022-07-01T08:21:06;4.80;;;1.67;;
15120;SDS011;7661;48.904;9.414;2022-07-01T08:23:33;4.63;;;1.33;;
15120;SDS011;7661;48.904;9.414;2022-07-01T08:26:02;3.23;;;1.70;;
15120;SDS011;7661;48.904;9.414;2022-07-01T08:28:29;2.60;;;1.40;;
15120;SDS011;7661;48.904;9.414;2022-07-01T08:30:56;3.67;;;1.50;;
15120;SDS011;7661;48.904;9.414;2022-07-01T08:33:23;3.10;;;1.60;;
15120;SDS011;7661;48.904;9.414;2022-07-01T08:35:50;3.77;;;1.80;;
15120;SDS011;7661;48.904;9.414;2022-07-01T08:38:17;2.53;;;1.53;;
15120;SDS011;7661;48.904;9.414;2022-07-01T08:40:43;4.77;;;1.93;;
15120;SDS011;7661;48.904;9.414;2022-07-01T08:43:12;6.27;;;2.10;;
15120;SDS011;7661;48.904;9.414;2022-07-01T08:45:39;3.90;;;1.80;;
15120;SDS011;7661;48.904;9.414;2022-07-01T08:48:06;4.13;;;2.10;;
15120;SDS011;7661;48.904;9.414;2022-07-01T08:50:34;3.93;;;1.93;;
15120;SDS011;7661;48.904;9.414;2022-07-01T08:53:02;4.53;;;2.00;;
15120;SDS011;7661;48.904;9.414;2022-07-01T08:55:30;2.90;;;1.97;;
15120;SDS011;7661;48.904;9.414;2022-07-01T08:57:57;5.23;;;1.93;;
15120;SDS011;7661;48.904;9.414;2022-07-01T09:00:32;3.00;;;2.13;;
15120;SDS011;7661;48.904;9.414;2022-07-01T09:02:59;3.63;;;2.30;;
15120;SDS011;7661;48.904;9.414;2022-07-01T09:05:27;2.97;;;1.93;;
15120;SDS011;7661;48.904;9.414;2022-07-01T09:07:56;3.50;;;2.10;;
15120;SDS011;7661;48.904;9.414;2022-07-01T09:10:24;6.17;;;2.03;;
15120;SDS011;7661;48.904;9.414;2022-07-01T09:12:51;5.23;;;2.90;;
15120;SDS011;7661;48.904;9.414;2022-07-01T09:15:19;5.23;;;2.07;;
15120;SDS011;7661;48.904;9.414;2022-07-01T09:17:48;5.43;;;2.43;;
15120;SDS011;7661;48.904;9.414;2022-07-01T09:20:28;5.50;;;2.17;;
15120;SDS011;7661;48.904;9.414;2022-07-01T09:23:01;2.60;;;1.80;;
15120;SDS011;7661;48.904;9.414;2022-07-01T09:25:30;6.20;;;2.10;;
15120;SDS011;7661;48.904;9.414;2022-07-01T09:28:03;6.50;;;2.30;;
15120;SDS011;7661;48.904;9.414;2022-07-01T09:30:34;6.90;;;2.90;;
15120;SDS011;7661;48.904;9.414;2022-07-01T09:33:11;3.77;;;2.43;;
15120;SDS011;7661;48.904;9.414;2022-07-01T09:35:39;6.00;;;3.33;;
15120;SDS011;7661;48.904;9.414;2022-07-01T09:38:09;8.53;;;3.90;;
15120;SDS011;7661;48.904;9.414;2022-07-01T09:40:46;7.00;;;4.20;;
15120;SDS011;7661;48.904;9.414;2022-07-01T09:43:15;6.47;;;3.70;;
15120;SDS011;7661;48.904;9.414;2022-07-01T09:45:56;4.90;;;3.10;;
15120;SDS011;7661;48.904;9.414;2022-07-01T09:48:27;8.40;;;3.07;;
15120;SDS011;7661;48.904;9.414;2022-07-01T09:51:09;5.23;;;3.27;;
15120;SDS011;7661;48.904;9.414;2022-07-01T09:53:37;6.33;;;3.40;;
15120;SDS011;7661;48.904;9.414;2022-07-01T09:56:05;5.73;;;3.60;;
15120;SDS011;7661;48.904;9.414;2022-07-01T09:58:32;6.20;;;3.30;;
15120;SDS011;7661;48.904;9.414;2022-07-01T10:01:00;8.37;;;4.43;;
15120;SDS011;7661;48.904;9.414;2022-07-01T10:03:30;9.97;;;4.63;;
15120;SDS011;7661;48.904;9.414;2022-07-01T10:06:03;7.10;;;3.10;;
15120;SDS011;7661;48.904;9.414;2022-07-01T10:08:50;4.20;;;3.13;;
15120;SDS011;7661;48.904;9.414;2022-07-01T10:11:42;5.30;;;3.23;;
15120;SDS011;7661;48.904;9.414;2022-07-01T10:14:18;7.47;;;3.30;;
15120;SDS011;7661;48.904;9.414;2022-07-01T10:16:46;11.50;;;4.73;;
15120;SDS011;7661;48.904;9.414;2022-07-01T10:21:59;9.33;;;4.90;;
15120;SDS011;7661;48.904;9.414;2022-07-01T10:24:27;7.53;;;4.00;;
15120;SDS011;7661;48.904;9.414;2022-07-01T10:26:57;5.80;;;3.43;;
15120;SDS011;7661;48.904;9.414;2022-07-01T10:29:26;4.70;;;2.50;;
15120;SDS011;7661;48.904;9.414;2022-07-01T10:31:57;4.73;;;2.60;;
15120;SDS011;7661;48.904;9.414;2022-07-01T10:34:34;3.40;;;2.50;;
15120;SDS011;7661;48.904;9.414;2022-07-01T10:37:02;7.97;;;2.90;;
15120;SDS011;7661;48.904;9.414;2022-07-01T10:39:31;3.23;;;2.17;;
15120;SDS011;7661;48.904;9.414;2022-07-01T10:42:27;7.90;;;2.43;;
15120;SDS011;7661;48.904;9.414;2022-07-01T10:45:02;8.10;;;2.73;;
15120;SDS011;7661;48.904;9.414;2022-07-01T10:47:31;4.60;;;2.70;;
15120;SDS011;7661;48.904;9.414;2022-07-01T10:50:00;4.30;;;2.50;;
15120;SDS011;7661;48.904;9.414;2022-07-01T10:52:30;3.30;;;2.57;;
15120;SDS011;7661;48.904;9.414;2022-07-01T10:54:58;4.40;;;3.33;;
15120;SDS011;7661;48.904;9.414;2022-07-01T10:57:28;16.20;;;2.93;;
15120;SDS011;7661;48.904;9.414;2022-07-01T11:02:55;6.40;;;3.40;;
15120;SDS011;7661;48.904;9.414;2022-07-01T11:05:32;5.77;;;2.60;;
15120;SDS011;7661;48.904;9.414;2022-07-01T11:08:00;5.10;;;3.27;;
15120;SDS011;7661;48.904;9.414;2022-07-01T11:10:27;3.60;;;2.60;;
15120;SDS011;7661;48.904;9.414;2022-07-01T11:12:54;4.50;;;2.70;;
15120;SDS011;7661;48.904;9.414;2022-07-01T11:15:21;3.80;;;2.60;;
15120;SDS011;7661;48.904;9.414;2022-07-01T11:17:49;3.20;;;2.63;;
15120;SDS011;7661;48.904;9.414;2022-07-01T11:20:16;2.90;;;1.77;;
15120;SDS011;7661;48.904;9.414;2022-07-01T11:22:44;4.20;;;1.87;;
15120;SDS011;7661;48.904;9.414;2022-07-01T11:25:12;3.23;;;1.60;;
15120;SDS011;7661;48.904;9.414;2022-07-01T11:27:39;7.33;;;2.73;;
15120;SDS011;7661;48.904;9.414;2022-07-01T11:30:11;4.77;;;2.50;;
15120;SDS011;7661;48.904;9.414;2022-07-01T11:32:40;5.27;;;2.50;;
15120;SDS011;7661;48.904;9.414;2022-07-01T11:35:10;4.70;;;2.30;;
15120;SDS011;7661;48.904;9.414;2022-07-01T11:38:05;6.10;;;1.80;;
15120;SDS011;7661;48.904;9.414;2022-07-01T11:40:50;5.03;;;2.17;;
15120;SDS011;7661;48.904;9.414;2022-07-01T11:43:18;3.23;;;1.60;;
15120;SDS011;7661;48.904;9.414;2022-07-01T11:45:46;3.20;;;1.90;;
15120;SDS011;7661;48.904;9.414;2022-07-01T11:48:27;7.07;;;1.80;;
15120;SDS011;7661;48.904;9.414;2022-07-01T11:50:55;3.20;;;1.50;;
15120;SDS011;7661;48.904;9.414;2022-07-01T11:53:23;3.03;;;1.40;;
15120;SDS011;7661;48.904;9.414;2022-07-01T11:55:50;3.60;;;1.80;;
15120;SDS011;7661;48.904;9.414;2022-07-01T11:58:17;4.63;;;1.80;;
15120;SDS011;7661;48.904;9.414;2022-07-01T12:00:44;3.27;;;1.40;;
15120;SDS011;7661;48.904;9.414;2022-07-01T12:03:11;4.00;;;1.70;;
15120;SDS011;7661;48.904;9.414;2022-07-01T12:05:38;4.80;;;1.80;;
15120;SDS011;7661;48.904;9.414;2022-07-01T12:08:05;4.17;;;1.40;;
15120;SDS011;7661;48.904;9.414;2022-07-01T12:10:34;2.50;;;1.33;;
15120;SDS011;7661;48.904;9.414;2022-07-01T12:15:49;3.30;;;1.30;;
15120;SDS011;7661;48.904;9.414;2022-07-01T12:18:16;2.90;;;1.30;;
15120;SDS011;7661;48.904;9.414;2022-07-01T12:20:50;3.60;;;1.30;;
15120;SDS011;7661;48.904;9.414;2022-07-01T12:23:18;4.27;;;1.80;;
15120;SDS011;7661;48.904;9.414;2022-07-01T12:25:48;6.43;;;1.67;;
15120;SDS011;7661;48.904;9.414;2022-07-01T12:28:29;6.43;;;1.57;;
15120;SDS011;7661;48.904;9.414;2022-07-01T12:31:01;4.70;;;1.60;;
15120;SDS011;7661;48.904;9.414;2022-07-01T12:33:29;4.33;;;2.00;;
15120;SDS011;7661;48.904;9.414;2022-07-01T12:35:56;5.53;;;1.80;;
15120;SDS011;7661;48.904;9.414;2022-07-01T12:38:23;3.83;;;1.60;;
15120;SDS011;7661;48.904;9.414;2022-07-01T12:40:51;4.40;;;1.20;;
15120;SDS011;7661;48.904;9.414;2022-07-01T12:43:22;3.57;;;1.80;;
15120;SDS011;7661;48.904;9.414;2022-07-01T12:45:49;6.90;;;2.50;;
15120;SDS011;7661;48.904;9.414;2022-07-01T12:48:16;4.83;;;2.10;;
15120;SDS011;7661;48.904;9.414;2022-07-01T12:50:43;6.20;;;2.07;;
15120;SDS011;7661;48.904;9.414;2022-07-01T12:53:12;3.40;;;1.80;;
15120;SDS011;7661;48.904;9.414;2022-07-01T12:55:44;5.73;;;1.97;;
15120;SDS011;7661;48.904;9.414;2022-07-01T12:58:14;3.07;;;1.80;;
15120;SDS011;7661;48.904;9.414;2022-07-01T13:00:42;3.70;;;1.27;;
15120;SDS011;7661;48.904;9.414;2022-07-01T13:03:10;5.73;;;1.30;;
15120;SDS011;7661;48.904;9.414;2022-07-01T13:05:38;5.40;;;1.73;;
15120;SDS011;7661;48.904;9.414;2022-07-01T13:08:06;4.40;;;1.70;;
15120;SDS011;7661;48.904;9.414;2022-07-01T13:10:34;4.77;;;1.57;;
15120;SDS011;7661;48.904;9.414;2022-07-01T13:13:01;6.50;;;1.60;;
15120;SDS011;7661;48.904;9.414;2022-07-01T13:15:30;4.73;;;1.80;;
15120;SDS011;7661;48.904;9.414;2022-07-01T13:17:58;3.27;;;1.70;;
15120;SDS011;7661;48.904;9.414;2022-07-01T13:20:25;3.30;;;1.50;;
15120;SDS011;7661;48.904;9.414;2022-07-01T13:22:52;3.43;;;1.47;;
15120;SDS011;7661;48.904;9.414;2022-07-01T13:25:19;2.33;;;1.30;;
15120;SDS011;7661;48.904;9.414;2022-07-01T13:27:46;2.77;;;1.30;;
15120;SDS011;7661;48.904;9.414;2022-07-01T13:30:14;5.20;;;1.27;;
15120;SDS011;7661;48.904;9.414;2022-07-01T13:32:43;2.60;;;1.20;;
15120;SDS011;7661;48.904;9.414;2022-07-01T13:35:11;6.13;;;1.40;;
15120;SDS011;7661;48.904;9.414;2022-07-01T13:37:40;3.87;;;1.30;;
15120;SDS011;7661;48.904;9.414;2022-07-01T13:40:07;4.97;;;1.47;;
15120;SDS011;7661;48.904;9.414;2022-07-01T13:42:35;4.17;;;1.23;;
15120;SDS011;7661;48.904;9.414;2022-07-01T13:45:02;2.30;;;1.10;;
15120;SDS011;7661;48.904;9.414;2022-07-01T13:47:29;2.67;;;1.00;;
15120;SDS011;7661;48.904;9.414;2022-07-01T13:49:57;2.27;;;1.17;;
15120;SDS011;7661;48.904;9.414;2022-07-01T13:52:24;3.27;;;1.20;;
15120;SDS011;7661;48.904;9.414;2022-07-01T13:54:53;4.63;;;1.23;;
15120;SDS011;7661;48.904;9.414;2022-07-01T13:57:20;2.00;;;1.17;;
15120;SDS011;7661;48.904;9.414;2022-07-01T13:59:47;5.43;;;1.30;;
15120;SDS011;7661;48.904;9.414;2022-07-01T14:02:14;4.03;;;1.40;;
15120;SDS011;7661;48.904;9.414;2022-07-01T14:04:42;2.93;;;1.33;;
15120;SDS011;7661;48.904;9.414;2022-07-01T14:07:11;3.27;;;1.33;;
15120;SDS011;7661;48.904;9.414;2022-07-01T14:09:38;7.90;;;1.50;;
15120;SDS011;7661;48.904;9.414;2022-07-01T14:12:05;2.90;;;0.93;;
15120;SDS011;7661;48.904;9.414;2022-07-01T14:14:33;7.90;;;1.20;;
15120;SDS011;7661;48.904;9.414;2022-07-01T14:16:59;2.77;;;1.10;;
15120;SDS011;7661;48.904;9.414;2022-07-01T14:19:26;4.50;;;1.40;;
15120;SDS011;7661;48.904;9.414;2022-07-01T14:21:53;3.87;;;1.43;;
15120;SDS011;7661;48.904;9.414;2022-07-01T14:24:22;5.03;;;1.60;;
15120;SDS011;7661;48.904;9.414;2022-07-01T14:26:49;4.20;;;1.53;;
15120;SDS011;7661;48.904;9.414;2022-07-01T14:29:16;4.50;;;1.37;;
15120;SDS011;7661;48.904;9.414;2022-07-01T14:31:42;2.87;;;1.17;;
15120;SDS011;7661;48.904;9.414;2022-07-01T14:34:11;2.93;;;1.20;;
15120;SDS011;7661;48.904;9.414;2022-07-01T14:36:38;2.80;;;1.30;;
15120;SDS011;7661;48.904;9.414;2022-07-01T14:39:04;2.90;;;1.10;;
15120;SDS011;7661;48.904;9.414;2022-07-01T14:41:33;4.10;;;1.20;;
15120;SDS011;7661;48.904;9.414;2022-07-01T14:43:59;2.87;;;1.30;;
15120;SDS011;7661;48.904;9.414;2022-07-01T14:46:26;5.33;;;1.53;;
15120;SDS011;7661;48.904;9.414;2022-07-01T14:48:53;2.90;;;1.20;;
15120;SDS011;7661;48.904;9.414;2022-07-01T14:51:20;3.00;;;1.10;;
15120;SDS011;7661;48.904;9.414;2022-07-01T14:53:47;3.90;;;1.50;;
15120;SDS011;7661;48.904;9.414;2022-07-01T14:56:15;3.80;;;1.10;;
15120;SDS011;7661;48.904;9.414;2022-07-01T15:01:37;3.57;;;0.90;;
15120;SDS011;7661;48.904;9.414;2022-07-01T15:04:06;3.57;;;1.20;;
15120;SDS011;7661;48.904;9.414;2022-07-01T15:06:34;4.50;;;1.20;;
15120;SDS011;7661;48.904;9.414;2022-07-01T15:09:01;3.03;;;1.20;;
15120;SDS011;7661;48.904;9.414;2022-07-01T15:11:29;2.30;;;1.10;;
15120;SDS011;7661;48.904;9.414;2022-07-01T15:13:59;2.87;;;1.27;;
15120;SDS011;7661;48.904;9.414;2022-07-01T15:16:26;5.30;;;1.40;;
15120;SDS011;7661;48.904;9.414;2022-07-01T15:18:53;2.63;;;1.20;;